Aérodrome :
LOGIN :

S'inscrire | Disclaimer

   EN    FR    IT 

 










Légende :    VFR   VFR Marginal   IFR   IFR Intensif   IFR Très Intensif
Visi : 
Plafond : 
>= 8 km
>= 3000ft
5 à 8 km
1000 à 3000 ft
1500m à 5 km
500 à 1000 ft
800 à 1500m
200 à 500 ft
< 800m
< 200 ft
Symboles :   Orages  Brouillard  Fortes neiges  Fortes précipitations  Vent > 20 kt
SIGMETs :   Divers  Orages  Givrage  Turbulence  Onde Orograph.  Cendres Volcan.






- Altitude de l'aérodrome : 41 ft


LIRE - Pratica di Mare Air Base Pomezia

DERNIER METAR :
  • 260455Z 02007KT CAVOK 14/12 Q1017 RMK SKC VIS MIN 9999 WIND THR13 /////KT WIND THR31 /////KT BLU

METARs EXPIRÉS :
  • 260355Z 35004KT CAVOK 13/11 Q1017
  • 260255Z 01008KT CAVOK 14/11 Q1017
  • 260155Z 36005KT CAVOK 14/11 Q1017
  • 260055Z 01005KT CAVOK 14/11 Q1017 RMK SKC VIS MIN 9999 WIND THR13 /////KT WIND THR31 /////KT BLU

TAF TAF LIRE
Valide du 26 à 03h jusqu'au 26 à 12h UTC


260200Z 2603/2612 35007KT CAVOK
BECMG 2609/2611 28012KT



MET'MAP, la Météo Aéronautique d'un coup d'oeil ! - Copyright ORBIFLY Décembre 2007 - Disclaimer

ORBIFLY MET'MAP TEAM :

Programmation & Développement : Alexandra Zaïnal
Sur une idée originale de : Baudouin d'Aumeries
Soutien technique & logistique : Manuel Goepfert
Assistance : Marc-Olivier Méhu




SOURCES & CREDITS :

   NOAA